sensor_id;sensor_type;location;lat;lon;timestamp;pressure;altitude;pressure_sealevel;temperature
20092;BMP180;10205;49.678;6.560;2022-11-12T00:01:22;101525.00;;;14.00
20092;BMP180;10205;49.678;6.560;2022-11-12T00:03:50;101526.00;;;14.00
20092;BMP180;10205;49.678;6.560;2022-11-12T00:06:18;101534.00;;;14.00
20092;BMP180;10205;49.678;6.560;2022-11-12T00:08:45;101541.00;;;14.00
20092;BMP180;10205;49.678;6.560;2022-11-12T00:11:13;101543.00;;;14.00
20092;BMP180;10205;49.678;6.560;2022-11-12T00:13:40;101531.00;;;13.90
20092;BMP180;10205;49.678;6.560;2022-11-12T00:16:09;101528.00;;;13.90
20092;BMP180;10205;49.678;6.560;2022-11-12T00:18:38;101537.00;;;13.90
20092;BMP180;10205;49.678;6.560;2022-11-12T00:21:06;101546.00;;;13.90
20092;BMP180;10205;49.678;6.560;2022-11-12T00:23:38;101548.00;;;13.90
20092;BMP180;10205;49.678;6.560;2022-11-12T00:26:05;101526.00;;;13.90
20092;BMP180;10205;49.678;6.560;2022-11-12T00:28:35;101530.00;;;13.90
20092;BMP180;10205;49.678;6.560;2022-11-12T00:31:10;101423.00;;;13.90
20092;BMP180;10205;49.678;6.560;2022-11-12T00:33:41;101528.00;;;13.90
20092;BMP180;10205;49.678;6.560;2022-11-12T00:36:10;101530.00;;;13.90
20092;BMP180;10205;49.678;6.560;2022-11-12T00:38:38;101532.00;;;13.90
20092;BMP180;10205;49.678;6.560;2022-11-12T00:41:08;101538.00;;;13.90
20092;BMP180;10205;49.678;6.560;2022-11-12T00:43:35;101535.00;;;13.90
20092;BMP180;10205;49.678;6.560;2022-11-12T00:46:02;101533.00;;;13.80
20092;BMP180;10205;49.678;6.560;2022-11-12T00:48:29;101531.00;;;13.80
20092;BMP180;10205;49.678;6.560;2022-11-12T00:51:04;101522.00;;;13.80
20092;BMP180;10205;49.678;6.560;2022-11-12T00:53:32;101533.00;;;13.80
20092;BMP180;10205;49.678;6.560;2022-11-12T00:56:02;101524.00;;;13.80
20092;BMP180;10205;49.678;6.560;2022-11-12T00:58:32;101533.00;;;13.80
20092;BMP180;10205;49.678;6.560;2022-11-12T01:01:06;101535.00;;;13.80
20092;BMP180;10205;49.678;6.560;2022-11-12T01:03:33;101541.00;;;13.80
20092;BMP180;10205;49.678;6.560;2022-11-12T01:06:04;101528.00;;;13.70
20092;BMP180;10205;49.678;6.560;2022-11-12T01:08:31;101529.00;;;13.70
20092;BMP180;10205;49.678;6.560;2022-11-12T01:11:06;101534.00;;;13.70
20092;BMP180;10205;49.678;6.560;2022-11-12T01:13:33;101530.00;;;13.70
20092;BMP180;10205;49.678;6.560;2022-11-12T01:16:05;101535.00;;;13.70
20092;BMP180;10205;49.678;6.560;2022-11-12T01:18:32;101539.00;;;13.70
20092;BMP180;10205;49.678;6.560;2022-11-12T01:21:03;101537.00;;;13.70
20092;BMP180;10205;49.678;6.560;2022-11-12T01:23:32;101539.00;;;13.70
20092;BMP180;10205;49.678;6.560;2022-11-12T01:26:04;101519.00;;;13.70
20092;BMP180;10205;49.678;6.560;2022-11-12T01:28:32;101530.00;;;13.60
20092;BMP180;10205;49.678;6.560;2022-11-12T01:31:10;101519.00;;;13.60
20092;BMP180;10205;49.678;6.560;2022-11-12T01:33:38;101527.00;;;13.60
20092;BMP180;10205;49.678;6.560;2022-11-12T01:36:09;101524.00;;;13.60
20092;BMP180;10205;49.678;6.560;2022-11-12T01:38:39;101525.00;;;13.60
20092;BMP180;10205;49.678;6.560;2022-11-12T01:41:09;101527.00;;;13.60
20092;BMP180;10205;49.678;6.560;2022-11-12T01:43:37;101520.00;;;13.60
20092;BMP180;10205;49.678;6.560;2022-11-12T01:46:12;101526.00;;;13.60
20092;BMP180;10205;49.678;6.560;2022-11-12T01:48:47;101521.00;;;13.60
20092;BMP180;10205;49.678;6.560;2022-11-12T01:51:20;101453.00;;;13.60
20092;BMP180;10205;49.678;6.560;2022-11-12T01:53:53;101518.00;;;13.60
20092;BMP180;10205;49.678;6.560;2022-11-12T01:56:23;101513.00;;;13.50
20092;BMP180;10205;49.678;6.560;2022-11-12T01:58:58;101503.00;;;13.50
20092;BMP180;10205;49.678;6.560;2022-11-12T02:01:27;101515.00;;;13.50
20092;BMP180;10205;49.678;6.560;2022-11-12T02:03:56;101515.00;;;13.50
20092;BMP180;10205;49.678;6.560;2022-11-12T02:06:25;101503.00;;;13.50
20092;BMP180;10205;49.678;6.560;2022-11-12T02:08:53;101500.00;;;13.50
20092;BMP180;10205;49.678;6.560;2022-11-12T02:11:21;101495.00;;;13.50
20092;BMP180;10205;49.678;6.560;2022-11-12T02:13:52;101502.00;;;13.50
20092;BMP180;10205;49.678;6.560;2022-11-12T02:16:32;101498.00;;;13.50
20092;BMP180;10205;49.678;6.560;2022-11-12T02:19:05;101497.00;;;13.50
20092;BMP180;10205;49.678;6.560;2022-11-12T02:21:35;101504.00;;;13.40
20092;BMP180;10205;49.678;6.560;2022-11-12T02:24:26;101507.00;;;13.40
20092;BMP180;10205;49.678;6.560;2022-11-12T02:26:54;101517.00;;;13.40
20092;BMP180;10205;49.678;6.560;2022-11-12T02:29:23;101499.00;;;13.40
20092;BMP180;10205;49.678;6.560;2022-11-12T02:31:51;101501.00;;;13.40
20092;BMP180;10205;49.678;6.560;2022-11-12T02:34:18;101504.00;;;13.40
20092;BMP180;10205;49.678;6.560;2022-11-12T02:36:47;101502.00;;;13.40
20092;BMP180;10205;49.678;6.560;2022-11-12T02:39:14;101513.00;;;13.40
20092;BMP180;10205;49.678;6.560;2022-11-12T02:41:41;101498.00;;;13.30
20092;BMP180;10205;49.678;6.560;2022-11-12T02:44:09;101503.00;;;13.30
20092;BMP180;10205;49.678;6.560;2022-11-12T02:46:36;101499.00;;;13.30
20092;BMP180;10205;49.678;6.560;2022-11-12T02:49:07;101490.00;;;13.30
20092;BMP180;10205;49.678;6.560;2022-11-12T02:51:34;101499.00;;;13.30
20092;BMP180;10205;49.678;6.560;2022-11-12T02:54:03;101505.00;;;13.30
20092;BMP180;10205;49.678;6.560;2022-11-12T02:56:34;101518.00;;;13.30
20092;BMP180;10205;49.678;6.560;2022-11-12T02:59:01;101503.00;;;13.30
20092;BMP180;10205;49.678;6.560;2022-11-12T03:01:29;101495.00;;;13.30
20092;BMP180;10205;49.678;6.560;2022-11-12T03:03:56;101495.00;;;13.20
20092;BMP180;10205;49.678;6.560;2022-11-12T03:06:24;101481.00;;;13.20
20092;BMP180;10205;49.678;6.560;2022-11-12T03:08:52;101481.00;;;13.20
20092;BMP180;10205;49.678;6.560;2022-11-12T03:11:20;101491.00;;;13.20
20092;BMP180;10205;49.678;6.560;2022-11-12T03:13:47;101486.00;;;13.20
20092;BMP180;10205;49.678;6.560;2022-11-12T03:16:14;101494.00;;;13.10
20092;BMP180;10205;49.678;6.560;2022-11-12T03:18:42;101483.00;;;13.20
20092;BMP180;10205;49.678;6.560;2022-11-12T03:21:09;101500.00;;;13.10
20092;BMP180;10205;49.678;6.560;2022-11-12T03:23:40;101491.00;;;13.20
20092;BMP180;10205;49.678;6.560;2022-11-12T03:26:10;101495.00;;;13.20
20092;BMP180;10205;49.678;6.560;2022-11-12T03:28:39;101494.00;;;13.10
20092;BMP180;10205;49.678;6.560;2022-11-12T03:31:06;101504.00;;;13.10
20092;BMP180;10205;49.678;6.560;2022-11-12T03:33:36;101492.00;;;13.10
20092;BMP180;10205;49.678;6.560;2022-11-12T03:36:04;101490.00;;;13.10
20092;BMP180;10205;49.678;6.560;2022-11-12T03:38:32;101486.00;;;13.10
20092;BMP180;10205;49.678;6.560;2022-11-12T03:41:04;101491.00;;;13.10
20092;BMP180;10205;49.678;6.560;2022-11-12T03:43:32;101490.00;;;13.10
20092;BMP180;10205;49.678;6.560;2022-11-12T03:46:01;101493.00;;;13.10
20092;BMP180;10205;49.678;6.560;2022-11-12T03:48:31;101489.00;;;13.10
20092;BMP180;10205;49.678;6.560;2022-11-12T03:51:00;101498.00;;;13.10
20092;BMP180;10205;49.678;6.560;2022-11-12T03:53:27;101489.00;;;13.10
20092;BMP180;10205;49.678;6.560;2022-11-12T03:55:54;101490.00;;;13.10
20092;BMP180;10205;49.678;6.560;2022-11-12T03:58:21;101492.00;;;13.00
20092;BMP180;10205;49.678;6.560;2022-11-12T04:00:49;101488.00;;;13.00
20092;BMP180;10205;49.678;6.560;2022-11-12T04:03:18;101487.00;;;13.00
20092;BMP180;10205;49.678;6.560;2022-11-12T04:05:47;101487.00;;;13.00
20092;BMP180;10205;49.678;6.560;2022-11-12T04:08:32;101484.00;;;13.00
20092;BMP180;10205;49.678;6.560;2022-11-12T04:11:05;101485.00;;;13.00
20092;BMP180;10205;49.678;6.560;2022-11-12T04:13:34;101488.00;;;13.00
20092;BMP180;10205;49.678;6.560;2022-11-12T04:16:07;101489.00;;;12.90
20092;BMP180;10205;49.678;6.560;2022-11-12T04:18:58;101487.00;;;12.90
20092;BMP180;10205;49.678;6.560;2022-11-12T04:21:49;101489.00;;;12.90
20092;BMP180;10205;49.678;6.560;2022-11-12T04:24:26;101478.00;;;12.90
20092;BMP180;10205;49.678;6.560;2022-11-12T04:27:14;101473.00;;;12.90
20092;BMP180;10205;49.678;6.560;2022-11-12T04:29:43;101472.00;;;12.90
20092;BMP180;10205;49.678;6.560;2022-11-12T04:32:29;101461.00;;;12.90
20092;BMP180;10205;49.678;6.560;2022-11-12T04:34:59;101468.00;;;12.80
20092;BMP180;10205;49.678;6.560;2022-11-12T04:37:29;101467.00;;;12.90
20092;BMP180;10205;49.678;6.560;2022-11-12T04:40:13;101472.00;;;12.90
20092;BMP180;10205;49.678;6.560;2022-11-12T04:42:57;101458.00;;;12.80
20092;BMP180;10205;49.678;6.560;2022-11-12T04:45:44;101459.00;;;12.80
20092;BMP180;10205;49.678;6.560;2022-11-12T04:48:13;101454.00;;;12.80
20092;BMP180;10205;49.678;6.560;2022-11-12T04:50:43;101465.00;;;12.80
20092;BMP180;10205;49.678;6.560;2022-11-12T04:53:12;101449.00;;;12.80
20092;BMP180;10205;49.678;6.560;2022-11-12T04:55:40;101466.00;;;12.80
20092;BMP180;10205;49.678;6.560;2022-11-12T04:58:11;101460.00;;;12.70
20092;BMP180;10205;49.678;6.560;2022-11-12T05:00:39;101458.00;;;12.70
20092;BMP180;10205;49.678;6.560;2022-11-12T05:03:06;101448.00;;;12.70
20092;BMP180;10205;49.678;6.560;2022-11-12T05:05:34;101476.00;;;12.70
20092;BMP180;10205;49.678;6.560;2022-11-12T05:08:09;101458.00;;;12.70
20092;BMP180;10205;49.678;6.560;2022-11-12T05:10:36;101466.00;;;12.70
20092;BMP180;10205;49.678;6.560;2022-11-12T05:13:04;101467.00;;;12.70
20092;BMP180;10205;49.678;6.560;2022-11-12T05:15:31;101463.00;;;12.70
20092;BMP180;10205;49.678;6.560;2022-11-12T05:17:59;101467.00;;;12.70
20092;BMP180;10205;49.678;6.560;2022-11-12T05:20:26;101464.00;;;12.70
20092;BMP180;10205;49.678;6.560;2022-11-12T05:22:53;101459.00;;;12.70
20092;BMP180;10205;49.678;6.560;2022-11-12T05:25:22;101449.00;;;12.70
20092;BMP180;10205;49.678;6.560;2022-11-12T05:27:49;101461.00;;;12.70
20092;BMP180;10205;49.678;6.560;2022-11-12T05:30:17;101465.00;;;12.70
20092;BMP180;10205;49.678;6.560;2022-11-12T05:32:44;101460.00;;;12.70
20092;BMP180;10205;49.678;6.560;2022-11-12T05:35:13;101418.00;;;12.60
20092;BMP180;10205;49.678;6.560;2022-11-12T05:37:40;101469.00;;;12.70
20092;BMP180;10205;49.678;6.560;2022-11-12T05:40:09;101451.00;;;12.60
20092;BMP180;10205;49.678;6.560;2022-11-12T05:42:37;101441.00;;;12.60
20092;BMP180;10205;49.678;6.560;2022-11-12T05:45:08;101467.00;;;12.60
20092;BMP180;10205;49.678;6.560;2022-11-12T05:47:35;101461.00;;;12.60
20092;BMP180;10205;49.678;6.560;2022-11-12T05:50:05;101459.00;;;12.60
20092;BMP180;10205;49.678;6.560;2022-11-12T05:52:33;101455.00;;;12.60
20092;BMP180;10205;49.678;6.560;2022-11-12T05:55:00;101465.00;;;12.60
20092;BMP180;10205;49.678;6.560;2022-11-12T05:57:29;101467.00;;;12.50
20092;BMP180;10205;49.678;6.560;2022-11-12T06:00:01;101472.00;;;12.50
20092;BMP180;10205;49.678;6.560;2022-11-12T06:02:28;101474.00;;;12.50
20092;BMP180;10205;49.678;6.560;2022-11-12T06:04:56;101470.00;;;12.50
20092;BMP180;10205;49.678;6.560;2022-11-12T06:07:24;101471.00;;;12.50
20092;BMP180;10205;49.678;6.560;2022-11-12T06:09:51;101477.00;;;12.50
20092;BMP180;10205;49.678;6.560;2022-11-12T06:12:26;101482.00;;;12.40
20092;BMP180;10205;49.678;6.560;2022-11-12T06:14:53;101456.00;;;12.40
20092;BMP180;10205;49.678;6.560;2022-11-12T06:17:23;101497.00;;;12.40
20092;BMP180;10205;49.678;6.560;2022-11-12T06:19:50;101493.00;;;12.30
20092;BMP180;10205;49.678;6.560;2022-11-12T06:22:18;101491.00;;;12.40
20092;BMP180;10205;49.678;6.560;2022-11-12T06:24:45;101497.00;;;12.40
20092;BMP180;10205;49.678;6.560;2022-11-12T06:27:13;101493.00;;;12.40
20092;BMP180;10205;49.678;6.560;2022-11-12T06:29:40;101490.00;;;12.30
20092;BMP180;10205;49.678;6.560;2022-11-12T06:32:09;101496.00;;;12.30
20092;BMP180;10205;49.678;6.560;2022-11-12T06:34:38;101501.00;;;12.30
20092;BMP180;10205;49.678;6.560;2022-11-12T06:37:06;101510.00;;;12.30
20092;BMP180;10205;49.678;6.560;2022-11-12T06:39:34;101495.00;;;12.30
20092;BMP180;10205;49.678;6.560;2022-11-12T06:42:02;101489.00;;;12.30
20092;BMP180;10205;49.678;6.560;2022-11-12T06:44:29;101493.00;;;12.30
20092;BMP180;10205;49.678;6.560;2022-11-12T06:46:57;101502.00;;;12.30
20092;BMP180;10205;49.678;6.560;2022-11-12T06:49:25;101486.00;;;12.30
20092;BMP180;10205;49.678;6.560;2022-11-12T06:51:53;101497.00;;;12.30
20092;BMP180;10205;49.678;6.560;2022-11-12T06:54:21;101489.00;;;12.30
20092;BMP180;10205;49.678;6.560;2022-11-12T06:56:53;101494.00;;;12.30
20092;BMP180;10205;49.678;6.560;2022-11-12T06:59:22;101505.00;;;12.30
20092;BMP180;10205;49.678;6.560;2022-11-12T07:01:55;101497.00;;;12.30
20092;BMP180;10205;49.678;6.560;2022-11-12T07:04:24;101491.00;;;12.30
20092;BMP180;10205;49.678;6.560;2022-11-12T07:06:53;101495.00;;;12.30
20092;BMP180;10205;49.678;6.560;2022-11-12T07:09:20;101495.00;;;12.30
20092;BMP180;10205;49.678;6.560;2022-11-12T07:11:49;101494.00;;;12.30
20092;BMP180;10205;49.678;6.560;2022-11-12T07:14:16;101497.00;;;12.00
20092;BMP180;10205;49.678;6.560;2022-11-12T07:16:44;101503.00;;;12.30
20092;BMP180;10205;49.678;6.560;2022-11-12T07:19:14;101503.00;;;12.30
20092;BMP180;10205;49.678;6.560;2022-11-12T07:21:42;101502.00;;;12.30
20092;BMP180;10205;49.678;6.560;2022-11-12T07:24:11;101525.00;;;12.30
20092;BMP180;10205;49.678;6.560;2022-11-12T07:26:38;101494.00;;;12.30
20092;BMP180;10205;49.678;6.560;2022-11-12T07:29:06;101494.00;;;12.20
20092;BMP180;10205;49.678;6.560;2022-11-12T07:31:36;101513.00;;;12.20
20092;BMP180;10205;49.678;6.560;2022-11-12T07:34:06;101510.00;;;12.20
20092;BMP180;10205;49.678;6.560;2022-11-12T07:36:33;101507.00;;;12.20
20092;BMP180;10205;49.678;6.560;2022-11-12T07:39:02;101526.00;;;12.20
20092;BMP180;10205;49.678;6.560;2022-11-12T07:41:32;101538.00;;;12.20
20092;BMP180;10205;49.678;6.560;2022-11-12T07:43:59;101530.00;;;12.20
20092;BMP180;10205;49.678;6.560;2022-11-12T07:46:27;101430.00;;;12.20
20092;BMP180;10205;49.678;6.560;2022-11-12T07:48:54;101488.00;;;12.20
20092;BMP180;10205;49.678;6.560;2022-11-12T07:51:26;101523.00;;;12.20
20092;BMP180;10205;49.678;6.560;2022-11-12T07:53:56;101535.00;;;12.20
20092;BMP180;10205;49.678;6.560;2022-11-12T07:56:26;101532.00;;;12.20
20092;BMP180;10205;49.678;6.560;2022-11-12T07:58:54;101525.00;;;12.20
20092;BMP180;10205;49.678;6.560;2022-11-12T08:01:27;101527.00;;;12.20
20092;BMP180;10205;49.678;6.560;2022-11-12T08:03:58;101542.00;;;12.20
20092;BMP180;10205;49.678;6.560;2022-11-12T08:06:26;101548.00;;;12.10
20092;BMP180;10205;49.678;6.560;2022-11-12T08:08:55;101519.00;;;12.20
20092;BMP180;10205;49.678;6.560;2022-11-12T08:11:23;101541.00;;;12.10
20092;BMP180;10205;49.678;6.560;2022-11-12T08:13:51;101550.00;;;12.10
20092;BMP180;10205;49.678;6.560;2022-11-12T08:16:20;101550.00;;;12.10
20092;BMP180;10205;49.678;6.560;2022-11-12T08:18:48;101564.00;;;12.10
20092;BMP180;10205;49.678;6.560;2022-11-12T08:21:17;101553.00;;;12.10
20092;BMP180;10205;49.678;6.560;2022-11-12T08:23:45;101552.00;;;12.10
20092;BMP180;10205;49.678;6.560;2022-11-12T08:26:16;101556.00;;;12.10
20092;BMP180;10205;49.678;6.560;2022-11-12T08:28:47;101563.00;;;12.10
20092;BMP180;10205;49.678;6.560;2022-11-12T08:31:20;101561.00;;;12.10
20092;BMP180;10205;49.678;6.560;2022-11-12T08:33:48;101579.00;;;12.10
20092;BMP180;10205;49.678;6.560;2022-11-12T08:36:16;101564.00;;;12.10
20092;BMP180;10205;49.678;6.560;2022-11-12T08:38:45;101567.00;;;12.10
20092;BMP180;10205;49.678;6.560;2022-11-12T08:41:14;101557.00;;;12.10
20092;BMP180;10205;49.678;6.560;2022-11-12T08:43:43;101574.00;;;12.10
20092;BMP180;10205;49.678;6.560;2022-11-12T08:46:13;101567.00;;;12.10
20092;BMP180;10205;49.678;6.560;2022-11-12T08:48:42;101566.00;;;12.10
20092;BMP180;10205;49.678;6.560;2022-11-12T08:51:10;101568.00;;;12.10
20092;BMP180;10205;49.678;6.560;2022-11-12T08:53:39;101563.00;;;12.10
20092;BMP180;10205;49.678;6.560;2022-11-12T08:56:09;101549.00;;;12.10
20092;BMP180;10205;49.678;6.560;2022-11-12T08:58:36;101556.00;;;12.10
20092;BMP180;10205;49.678;6.560;2022-11-12T09:01:06;101562.00;;;12.10
20092;BMP180;10205;49.678;6.560;2022-11-12T09:03:36;101559.00;;;12.10
20092;BMP180;10205;49.678;6.560;2022-11-12T09:06:07;101550.00;;;12.10
20092;BMP180;10205;49.678;6.560;2022-11-12T09:08:36;101546.00;;;12.10
20092;BMP180;10205;49.678;6.560;2022-11-12T09:11:05;101565.00;;;12.10
20092;BMP180;10205;49.678;6.560;2022-11-12T09:13:33;101548.00;;;12.10
20092;BMP180;10205;49.678;6.560;2022-11-12T09:16:02;101552.00;;;12.10
20092;BMP180;10205;49.678;6.560;2022-11-12T09:18:32;101558.00;;;12.10
20092;BMP180;10205;49.678;6.560;2022-11-12T09:21:02;101553.00;;;12.10
20092;BMP180;10205;49.678;6.560;2022-11-12T09:23:34;101552.00;;;12.10
20092;BMP180;10205;49.678;6.560;2022-11-12T09:26:03;101548.00;;;12.10
20092;BMP180;10205;49.678;6.560;2022-11-12T09:28:32;101542.00;;;12.10
20092;BMP180;10205;49.678;6.560;2022-11-12T09:31:02;101539.00;;;12.10
20092;BMP180;10205;49.678;6.560;2022-11-12T09:33:31;101556.00;;;12.10
20092;BMP180;10205;49.678;6.560;2022-11-12T09:36:00;101541.00;;;12.10
20092;BMP180;10205;49.678;6.560;2022-11-12T09:38:28;101547.00;;;12.10
20092;BMP180;10205;49.678;6.560;2022-11-12T09:41:18;101552.00;;;12.10
20092;BMP180;10205;49.678;6.560;2022-11-12T09:43:50;101535.00;;;12.10
20092;BMP180;10205;49.678;6.560;2022-11-12T09:46:36;101551.00;;;12.10
20092;BMP180;10205;49.678;6.560;2022-11-12T09:51:47;101561.00;;;12.10
20092;BMP180;10205;49.678;6.560;2022-11-12T09:54:22;101564.00;;;12.10
20092;BMP180;10205;49.678;6.560;2022-11-12T09:56:54;101557.00;;;12.10
20092;BMP180;10205;49.678;6.560;2022-11-12T09:59:30;101552.00;;;12.10
20092;BMP180;10205;49.678;6.560;2022-11-12T10:02:09;101554.00;;;12.10
20092;BMP180;10205;49.678;6.560;2022-11-12T10:04:54;101565.00;;;12.10
20092;BMP180;10205;49.678;6.560;2022-11-12T10:07:40;101545.00;;;12.10
20092;BMP180;10205;49.678;6.560;2022-11-12T10:10:15;101558.00;;;12.10
20092;BMP180;10205;49.678;6.560;2022-11-12T10:13:01;101548.00;;;12.10
20092;BMP180;10205;49.678;6.560;2022-11-12T10:15:43;101554.00;;;12.10
20092;BMP180;10205;49.678;6.560;2022-11-12T10:18:44;101537.00;;;12.10
20092;BMP180;10205;49.678;6.560;2022-11-12T10:21:28;101536.00;;;12.10
20092;BMP180;10205;49.678;6.560;2022-11-12T10:23:59;101555.00;;;12.10
20092;BMP180;10205;49.678;6.560;2022-11-12T10:26:27;101553.00;;;12.10
20092;BMP180;10205;49.678;6.560;2022-11-12T10:29:11;101533.00;;;12.10
20092;BMP180;10205;49.678;6.560;2022-11-12T10:31:39;101532.00;;;12.20
20092;BMP180;10205;49.678;6.560;2022-11-12T10:34:16;101534.00;;;12.20
20092;BMP180;10205;49.678;6.560;2022-11-12T10:36:49;101528.00;;;12.20
20092;BMP180;10205;49.678;6.560;2022-11-12T10:39:37;101526.00;;;12.20
20092;BMP180;10205;49.678;6.560;2022-11-12T10:42:08;101519.00;;;12.20
20092;BMP180;10205;49.678;6.560;2022-11-12T10:44:38;101519.00;;;12.20
20092;BMP180;10205;49.678;6.560;2022-11-12T10:47:23;101513.00;;;12.20
20092;BMP180;10205;49.678;6.560;2022-11-12T10:50:11;101514.00;;;12.20
20092;BMP180;10205;49.678;6.560;2022-11-12T10:52:57;101506.00;;;12.20
20092;BMP180;10205;49.678;6.560;2022-11-12T10:55:27;101509.00;;;12.20
20092;BMP180;10205;49.678;6.560;2022-11-12T11:03:05;101500.00;;;12.30
20092;BMP180;10205;49.678;6.560;2022-11-12T11:05:36;101494.00;;;12.30
20092;BMP180;10205;49.678;6.560;2022-11-12T11:08:04;101498.00;;;12.30
20092;BMP180;10205;49.678;6.560;2022-11-12T11:10:34;101485.00;;;12.30
20092;BMP180;10205;49.678;6.560;2022-11-12T11:13:19;101483.00;;;12.30
20092;BMP180;10205;49.678;6.560;2022-11-12T11:18:31;101477.00;;;12.40
20092;BMP180;10205;49.678;6.560;2022-11-12T11:21:16;101475.00;;;12.40
20092;BMP180;10205;49.678;6.560;2022-11-12T11:23:52;101471.00;;;12.40
20092;BMP180;10205;49.678;6.560;2022-11-12T11:26:33;101466.00;;;12.40
20092;BMP180;10205;49.678;6.560;2022-11-12T11:29:25;101469.00;;;12.40
20092;BMP180;10205;49.678;6.560;2022-11-12T11:32:05;101465.00;;;12.40
20092;BMP180;10205;49.678;6.560;2022-11-12T11:34:50;101465.00;;;12.40
20092;BMP180;10205;49.678;6.560;2022-11-12T11:37:29;101457.00;;;12.40
20092;BMP180;10205;49.678;6.560;2022-11-12T11:40:08;101456.00;;;12.50
20092;BMP180;10205;49.678;6.560;2022-11-12T11:42:57;101436.00;;;12.40
20092;BMP180;10205;49.678;6.560;2022-11-12T11:45:38;101439.00;;;12.40
20092;BMP180;10205;49.678;6.560;2022-11-12T11:48:18;101439.00;;;12.50
20092;BMP180;10205;49.678;6.560;2022-11-12T11:50:58;101430.00;;;12.50
20092;BMP180;10205;49.678;6.560;2022-11-12T11:53:38;101432.00;;;12.50
20092;BMP180;10205;49.678;6.560;2022-11-12T11:56:18;101434.00;;;12.40
20092;BMP180;10205;49.678;6.560;2022-11-12T12:02:14;101442.00;;;12.50
20092;BMP180;10205;49.678;6.560;2022-11-12T12:04:50;101428.00;;;12.50
20092;BMP180;10205;49.678;6.560;2022-11-12T12:07:35;101432.00;;;12.50
20092;BMP180;10205;49.678;6.560;2022-11-12T12:10:18;101446.00;;;12.40
20092;BMP180;10205;49.678;6.560;2022-11-12T12:12:59;101446.00;;;12.40
20092;BMP180;10205;49.678;6.560;2022-11-12T12:15:50;101441.00;;;12.40
20092;BMP180;10205;49.678;6.560;2022-11-12T12:18:34;101437.00;;;12.40
20092;BMP180;10205;49.678;6.560;2022-11-12T12:21:11;101434.00;;;12.40
20092;BMP180;10205;49.678;6.560;2022-11-12T12:23:45;101431.00;;;12.40
20092;BMP180;10205;49.678;6.560;2022-11-12T12:26:19;101419.00;;;12.40
20092;BMP180;10205;49.678;6.560;2022-11-12T12:28:53;101415.00;;;12.40
20092;BMP180;10205;49.678;6.560;2022-11-12T12:31:30;101417.00;;;12.40
20092;BMP180;10205;49.678;6.560;2022-11-12T12:34:02;101400.00;;;12.40
20092;BMP180;10205;49.678;6.560;2022-11-12T12:36:35;101416.00;;;12.40
20092;BMP180;10205;49.678;6.560;2022-11-12T12:39:13;101407.00;;;12.40
20092;BMP180;10205;49.678;6.560;2022-11-12T12:41:50;101402.00;;;12.40
20092;BMP180;10205;49.678;6.560;2022-11-12T12:44:19;101400.00;;;12.30
20092;BMP180;10205;49.678;6.560;2022-11-12T12:46:52;101393.00;;;12.30
20092;BMP180;10205;49.678;6.560;2022-11-12T12:49:29;101386.00;;;12.30
20092;BMP180;10205;49.678;6.560;2022-11-12T12:51:58;101380.00;;;12.30
20092;BMP180;10205;49.678;6.560;2022-11-12T12:54:56;101393.00;;;12.30
20092;BMP180;10205;49.678;6.560;2022-11-12T12:57:31;101385.00;;;12.40
20092;BMP180;10205;49.678;6.560;2022-11-12T13:00:25;101392.00;;;12.40
20092;BMP180;10205;49.678;6.560;2022-11-12T13:02:54;101386.00;;;12.40
20092;BMP180;10205;49.678;6.560;2022-11-12T13:05:28;101381.00;;;12.40
20092;BMP180;10205;49.678;6.560;2022-11-12T13:08:01;101385.00;;;12.40
20092;BMP180;10205;49.678;6.560;2022-11-12T13:10:54;101381.00;;;12.40
20092;BMP180;10205;49.678;6.560;2022-11-12T13:13:30;101390.00;;;12.40
20092;BMP180;10205;49.678;6.560;2022-11-12T13:16:00;101396.00;;;12.50
20092;BMP180;10205;49.678;6.560;2022-11-12T13:19:00;101377.00;;;12.50
20092;BMP180;10205;49.678;6.560;2022-11-12T13:21:28;101368.00;;;12.50
20092;BMP180;10205;49.678;6.560;2022-11-12T13:23:58;101358.00;;;12.50
20092;BMP180;10205;49.678;6.560;2022-11-12T13:27:04;101378.00;;;12.60
20092;BMP180;10205;49.678;6.560;2022-11-12T13:29:44;101371.00;;;12.60
20092;BMP180;10205;49.678;6.560;2022-11-12T13:32:31;101368.00;;;12.60
20092;BMP180;10205;49.678;6.560;2022-11-12T13:35:23;101361.00;;;12.60
20092;BMP180;10205;49.678;6.560;2022-11-12T13:37:52;101358.00;;;12.70
20092;BMP180;10205;49.678;6.560;2022-11-12T13:40:35;101337.00;;;12.70
20092;BMP180;10205;49.678;6.560;2022-11-12T13:43:11;101352.00;;;12.70
20092;BMP180;10205;49.678;6.560;2022-11-12T13:45:45;101357.00;;;12.70
20092;BMP180;10205;49.678;6.560;2022-11-12T13:48:21;101347.00;;;12.80
20092;BMP180;10205;49.678;6.560;2022-11-12T13:50:54;101326.00;;;12.80
20092;BMP180;10205;49.678;6.560;2022-11-12T13:53:25;101338.00;;;12.80
20092;BMP180;10205;49.678;6.560;2022-11-12T13:55:53;101332.00;;;12.80
20092;BMP180;10205;49.678;6.560;2022-11-12T13:58:29;101340.00;;;12.90
20092;BMP180;10205;49.678;6.560;2022-11-12T14:00:58;101323.00;;;12.90
20092;BMP180;10205;49.678;6.560;2022-11-12T14:03:31;101326.00;;;12.90
20092;BMP180;10205;49.678;6.560;2022-11-12T14:06:04;101331.00;;;12.90
20092;BMP180;10205;49.678;6.560;2022-11-12T14:08:58;101330.00;;;13.00
20092;BMP180;10205;49.678;6.560;2022-11-12T14:11:45;101321.00;;;13.00
20092;BMP180;10205;49.678;6.560;2022-11-12T14:14:32;101323.00;;;13.00
20092;BMP180;10205;49.678;6.560;2022-11-12T14:17:24;101335.00;;;13.00
20092;BMP180;10205;49.678;6.560;2022-11-12T14:20:22;101316.00;;;13.00
20092;BMP180;10205;49.678;6.560;2022-11-12T14:22:52;101317.00;;;13.00
20092;BMP180;10205;49.678;6.560;2022-11-12T14:25:24;101320.00;;;13.00
20092;BMP180;10205;49.678;6.560;2022-11-12T14:27:54;101319.00;;;13.00
20092;BMP180;10205;49.678;6.560;2022-11-12T14:30:25;101319.00;;;13.10
20092;BMP180;10205;49.678;6.560;2022-11-12T14:32:59;101334.00;;;13.10
20092;BMP180;10205;49.678;6.560;2022-11-12T14:35:37;101319.00;;;13.10
20092;BMP180;10205;49.678;6.560;2022-11-12T14:38:19;101317.00;;;13.10
20092;BMP180;10205;49.678;6.560;2022-11-12T14:40:51;101311.00;;;13.10